Time;durP1;ratioP1;P1;durP2;ratioP2;P2;SDS_P1;SDS_P2;PMS_P1;PMS_P2;Temp;Humidity;BMP_temperature;BMP_pressure;BME280_temperature;BME280_humidity;BME280_pressure;Samples;Min_cycle;Max_cycle;Signal;HPM_P1;HPM_P2
2022/01/28 00:01:04;;;;;;;19.75;2.45;;;;;;;;;;5094068;28;20090;-79
2022/01/28 00:03:32;;;;;;;18.17;2.05;;;;;;;;;;5103109;28;20051;-79
2022/01/28 00:05:59;;;;;;;20.77;1.98;;;;;;;;;;5112933;28;20113;-79
2022/01/28 00:08:25;;;;;;;11.05;1.95;;;;;;;;;;5094137;28;20052;-79
2022/01/28 00:10:52;;;;;;;14.05;1.90;;;;;;;;;;5099082;27;20036;-79
2022/01/28 00:13:35;;;;;;;14.35;1.83;;;;;;;;;;5111943;28;20052;-79
2022/01/28 00:16:43;;;;;;;15.02;2.08;;;;;;;;;;5094248;28;20102;-79
2022/01/28 00:40:26;;;;;;;11.38;1.70;;;;;;;;;;5111832;28;20109;-79
2022/01/28 00:42:52;;;;;;;15.60;2.20;;;;;;;;;;5112171;28;20082;-79
2022/01/28 00:45:19;;;;;;;12.75;1.88;;;;;;;;;;5087619;27;20036;-79
2022/01/28 00:47:47;;;;;;;13.07;2.17;;;;;;;;;;5110813;28;20056;-79
2022/01/28 00:50:14;;;;;;;15.38;2.08;;;;;;;;;;5111936;28;20064;-79
2022/01/28 00:52:40;;;;;;;16.73;2.03;;;;;;;;;;5110453;28;20084;-79
2022/01/28 00:55:07;;;;;;;10.43;2.13;;;;;;;;;;5107366;27;20559;-79
2022/01/28 00:57:33;;;;;;;12.90;1.90;;;;;;;;;;5112969;27;20407;-79
2022/01/28 00:59:59;;;;;;;17.77;2.30;;;;;;;;;;5103180;28;20844;-79
2022/01/28 01:02:26;;;;;;;19.58;2.78;;;;;;;;;;5102808;28;20052;-79
2022/01/28 01:04:52;;;;;;;14.88;1.80;;;;;;;;;;5111491;28;20511;-79
2022/01/28 01:07:18;;;;;;;19.20;2.13;;;;;;;;;;5092471;28;20078;-79
2022/01/28 01:09:45;;;;;;;17.23;1.85;;;;;;;;;;5091918;28;20579;-79
2022/01/28 01:12:12;;;;;;;8.85;1.90;;;;;;;;;;5094153;28;20056;-79
2022/01/28 01:14:39;;;;;;;18.27;1.73;;;;;;;;;;5093439;28;20048;-79
2022/01/28 01:17:26;;;;;;;12.27;1.90;;;;;;;;;;5092520;28;20150;-79
2022/01/28 01:20:06;;;;;;;14.82;1.67;;;;;;;;;;5081622;28;20063;-79
2022/01/28 01:22:37;;;;;;;21.40;2.40;;;;;;;;;;5111559;27;20112;-79
2022/01/28 01:25:13;;;;;;;15.77;2.25;;;;;;;;;;5110474;28;20048;-79
2022/01/28 01:27:40;;;;;;;12.60;1.77;;;;;;;;;;5109794;28;20064;-79
2022/01/28 01:30:07;;;;;;;15.68;2.15;;;;;;;;;;5112487;27;20177;-79
2022/01/28 01:32:34;;;;;;;13.77;2.20;;;;;;;;;;5114471;28;20052;-79
2022/01/28 01:35:00;;;;;;;14.00;1.67;;;;;;;;;;5087164;28;20123;-79
2022/01/28 01:37:27;;;;;;;12.23;1.50;;;;;;;;;;5087319;28;20597;-79
2022/01/28 01:39:53;;;;;;;14.18;1.67;;;;;;;;;;5096006;28;20595;-79
2022/01/28 01:42:33;;;;;;;15.63;2.03;;;;;;;;;;5095147;28;20051;-79
2022/01/28 01:53:09;;;;;;;9.07;1.55;;;;;;;;;;5095976;28;20102;-79
2022/01/28 01:55:35;;;;;;;17.70;2.78;;;;;;;;;;5095334;28;20423;-79
2022/01/28 01:58:02;;;;;;;10.20;1.73;;;;;;;;;;5095828;28;20063;-79
2022/01/28 02:00:28;;;;;;;8.95;1.23;;;;;;;;;;5087157;28;20071;-79
2022/01/28 02:02:55;;;;;;;16.27;1.85;;;;;;;;;;5113634;27;20078;-79
2022/01/28 02:05:21;;;;;;;13.23;1.98;;;;;;;;;;5113644;27;20422;-79
2022/01/28 02:07:48;;;;;;;11.43;1.48;;;;;;;;;;5107217;27;20059;-79
2022/01/28 02:10:14;;;;;;;14.20;2.08;;;;;;;;;;5092287;28;20048;-79
2022/01/28 02:12:49;;;;;;;16.13;1.55;;;;;;;;;;5113863;28;20051;-79
2022/01/28 02:15:16;;;;;;;14.40;1.42;;;;;;;;;;5096807;28;20060;-79
2022/01/28 02:17:42;;;;;;;15.77;1.83;;;;;;;;;;5095760;28;20094;-79
2022/01/28 02:20:12;;;;;;;11.63;2.08;;;;;;;;;;5095602;28;20052;-79
2022/01/28 02:22:39;;;;;;;13.75;1.67;;;;;;;;;;5109983;27;20415;-79
2022/01/28 02:25:05;;;;;;;11.55;1.40;;;;;;;;;;5094382;28;20078;-79
2022/01/28 02:27:32;;;;;;;8.07;1.60;;;;;;;;;;5107275;28;20052;-79
2022/01/28 02:29:58;;;;;;;13.90;1.50;;;;;;;;;;5095733;27;20110;-79
2022/01/28 02:32:24;;;;;;;10.73;1.40;;;;;;;;;;5113591;28;20048;-79
2022/01/28 02:34:51;;;;;;;17.60;2.00;;;;;;;;;;5096029;28;20040;-79
2022/01/28 02:37:17;;;;;;;15.93;1.63;;;;;;;;;;5112751;27;20738;-79
2022/01/28 02:39:44;;;;;;;14.10;1.55;;;;;;;;;;5095026;27;20070;-80
2022/01/28 02:42:20;;;;;;;11.88;1.98;;;;;;;;;;5110640;28;20048;-79
2022/01/28 02:44:53;;;;;;;12.68;1.67;;;;;;;;;;5095254;28;20102;-79
2022/01/28 02:47:31;;;;;;;9.60;1.35;;;;;;;;;;5112510;27;20097;-79
2022/01/28 02:49:58;;;;;;;10.40;1.30;;;;;;;;;;5113037;27;20048;-79
2022/01/28 02:52:36;;;;;;;12.50;1.85;;;;;;;;;;5112300;28;20059;-79
2022/01/28 02:55:08;;;;;;;17.60;2.15;;;;;;;;;;5095375;28;20052;-79
2022/01/28 02:57:37;;;;;;;13.45;1.50;;;;;;;;;;5094026;28;20102;-79
2022/01/28 03:00:04;;;;;;;13.48;1.40;;;;;;;;;;5091390;28;20048;-79
2022/01/28 03:02:31;;;;;;;12.82;1.88;;;;;;;;;;5095908;28;20101;-79
2022/01/28 03:07:43;;;;;;;8.35;1.20;;;;;;;;;;5113174;27;20047;-79
2022/01/28 03:15:23;;;;;;;9.75;1.75;;;;;;;;;;5061385;28;20106;-79
2022/01/28 03:18:09;;;;;;;15.25;1.98;;;;;;;;;;5078881;28;20114;-79
2022/01/28 03:20:58;;;;;;;15.30;2.13;;;;;;;;;;5099400;28;20556;-79
2022/01/28 03:23:24;;;;;;;14.88;2.42;;;;;;;;;;5112011;28;20114;-79
2022/01/28 03:25:51;;;;;;;16.67;1.77;;;;;;;;;;5113591;28;20522;-79
2022/01/28 03:28:20;;;;;;;13.93;2.00;;;;;;;;;;5094901;28;20718;-79
2022/01/28 03:30:46;;;;;;;10.50;1.90;;;;;;;;;;5094279;28;20080;-79
2022/01/28 03:33:13;;;;;;;19.48;2.10;;;;;;;;;;5092973;28;20075;-79
2022/01/28 03:35:39;;;;;;;10.80;2.00;;;;;;;;;;5091115;28;20078;-79
2022/01/28 03:38:10;;;;;;;15.68;1.88;;;;;;;;;;5094618;28;20935;-79
2022/01/28 03:40:37;;;;;;;14.55;1.95;;;;;;;;;;5093686;28;20596;-79
2022/01/28 03:43:04;;;;;;;10.82;1.67;;;;;;;;;;5110410;28;20487;-78
2022/01/28 03:45:30;;;;;;;15.23;2.28;;;;;;;;;;5112301;28;20510;-79
2022/01/28 03:47:57;;;;;;;11.00;1.75;;;;;;;;;;5111020;28;20106;-79
2022/01/28 03:50:24;;;;;;;11.18;1.48;;;;;;;;;;5089660;28;20507;-79
2022/01/28 03:52:50;;;;;;;10.77;2.00;;;;;;;;;;5107810;28;20075;-79
2022/01/28 03:55:17;;;;;;;12.00;1.95;;;;;;;;;;5112251;28;20056;-79
2022/01/28 03:57:43;;;;;;;16.00;1.60;;;;;;;;;;5112391;28;20109;-79
2022/01/28 04:00:10;;;;;;;12.30;1.90;;;;;;;;;;5111931;28;20048;-79
2022/01/28 04:02:40;;;;;;;15.40;2.17;;;;;;;;;;5094057;28;20105;-79
2022/01/28 04:13:23;;;;;;;14.65;1.83;;;;;;;;;;5107516;28;20737;-79
2022/01/28 04:18:16;;;;;;;13.85;1.90;;;;;;;;;;5112187;28;20084;-79
2022/01/28 04:20:42;;;;;;;16.73;1.70;;;;;;;;;;5094872;28;20048;-79
2022/01/28 04:23:09;;;;;;;9.25;1.52;;;;;;;;;;5094221;28;20584;-79
2022/01/28 04:25:35;;;;;;;19.02;1.52;;;;;;;;;;5079947;28;20495;-79
2022/01/28 04:28:02;;;;;;;13.88;1.70;;;;;;;;;;5105151;28;20052;-79
2022/01/28 04:30:28;;;;;;;10.07;1.77;;;;;;;;;;5112635;28;20056;-79
2022/01/28 04:32:54;;;;;;;11.27;1.70;;;;;;;;;;5113169;27;20142;-79
2022/01/28 04:35:21;;;;;;;15.88;2.00;;;;;;;;;;5112719;28;20109;-79
2022/01/28 04:40:30;;;;;;;11.45;1.92;;;;;;;;;;5111544;28;20052;-79
2022/01/28 04:50:45;;;;;;;10.82;1.52;;;;;;;;;;5111007;28;20083;-79
2022/01/28 04:53:31;;;;;;;9.65;1.50;;;;;;;;;;5093684;28;20113;-79
2022/01/28 04:56:25;;;;;;;10.57;2.25;;;;;;;;;;5092233;28;20051;-79
2022/01/28 04:59:16;;;;;;;13.25;1.60;;;;;;;;;;5084790;28;20053;-79
2022/01/28 05:02:07;;;;;;;11.38;1.50;;;;;;;;;;5106853;27;20040;-79
2022/01/28 05:28:53;;;;;;;14.00;2.28;;;;;;;;;;5110038;28;20095;-79
2022/01/28 05:31:20;;;;;;;14.18;1.48;;;;;;;;;;5109860;27;20075;-79
2022/01/28 05:33:46;;;;;;;12.02;1.85;;;;;;;;;;5077299;28;20056;-79
2022/01/28 05:36:13;;;;;;;9.77;1.60;;;;;;;;;;5096271;27;20056;-79
2022/01/28 05:38:39;;;;;;;12.55;1.75;;;;;;;;;;5110023;28;20121;-79
2022/01/28 05:41:06;;;;;;;17.55;1.80;;;;;;;;;;5110663;28;20105;-79
2022/01/28 05:43:32;;;;;;;11.48;1.67;;;;;;;;;;5091580;28;20101;-79
2022/01/28 05:45:58;;;;;;;13.68;1.65;;;;;;;;;;5109592;28;20052;-79
2022/01/28 05:48:25;;;;;;;10.32;1.60;;;;;;;;;;5091653;28;20063;-79
2022/01/28 05:50:55;;;;;;;15.63;2.20;;;;;;;;;;5099047;27;20118;-79
2022/01/28 05:53:21;;;;;;;11.35;1.95;;;;;;;;;;5110110;28;20056;-79
2022/01/28 05:55:47;;;;;;;11.90;1.65;;;;;;;;;;5091444;28;20059;-79
2022/01/28 05:58:14;;;;;;;8.50;1.63;;;;;;;;;;5110295;28;20509;-81
2022/01/28 06:00:41;;;;;;;11.25;1.73;;;;;;;;;;5112527;28;20133;-80
2022/01/28 06:03:10;;;;;;;15.80;1.77;;;;;;;;;;5089637;28;20055;-78
2022/01/28 06:05:36;;;;;;;8.60;1.60;;;;;;;;;;5091623;27;20083;-78
2022/01/28 06:08:03;;;;;;;8.00;1.83;;;;;;;;;;5105255;28;20106;-78
2022/01/28 06:10:29;;;;;;;13.18;1.38;;;;;;;;;;5088462;28;20052;-78
2022/01/28 06:12:56;;;;;;;10.23;1.95;;;;;;;;;;5090300;28;20479;-78
2022/01/28 06:15:22;;;;;;;13.02;1.83;;;;;;;;;;5091384;28;20118;-78
2022/01/28 06:17:48;;;;;;;12.80;1.27;;;;;;;;;;5110603;28;20102;-78
2022/01/28 06:20:19;;;;;;;11.98;1.45;;;;;;;;;;5110422;27;20087;-78
2022/01/28 06:22:46;;;;;;;13.35;1.48;;;;;;;;;;5093377;28;20062;-78
2022/01/28 06:25:15;;;;;;;11.75;1.55;;;;;;;;;;5097520;28;20099;-78
2022/01/28 06:27:42;;;;;;;12.25;1.65;;;;;;;;;;5111228;27;20056;-78
2022/01/28 06:30:09;;;;;;;13.07;1.58;;;;;;;;;;5110884;28;20530;-78
2022/01/28 06:32:36;;;;;;;14.10;1.60;;;;;;;;;;5089680;28;20091;-78
2022/01/28 06:35:08;;;;;;;14.65;1.63;;;;;;;;;;5090293;28;20518;-78
2022/01/28 06:37:39;;;;;;;9.13;1.30;;;;;;;;;;5087140;28;20049;-78
2022/01/28 06:40:06;;;;;;;18.48;1.52;;;;;;;;;;5107996;27;20105;-78
2022/01/28 06:42:32;;;;;;;8.25;1.98;;;;;;;;;;5089445;28;20056;-78
2022/01/28 06:44:59;;;;;;;15.15;1.70;;;;;;;;;;5100229;28;20083;-78
2022/01/28 06:47:26;;;;;;;21.40;2.75;;;;;;;;;;5084379;28;20136;-78
2022/01/28 06:49:52;;;;;;;12.73;2.38;;;;;;;;;;5084913;27;20075;-78
2022/01/28 06:52:19;;;;;;;22.00;2.72;;;;;;;;;;5098548;27;20056;-78
2022/01/28 06:54:45;;;;;;;16.38;1.75;;;;;;;;;;5108057;28;20103;-79
2022/01/28 06:57:11;;;;;;;14.38;2.58;;;;;;;;;;5091419;27;20052;-78
2022/01/28 06:59:38;;;;;;;21.70;3.22;;;;;;;;;;5089410;28;20106;-78
2022/01/28 07:02:04;;;;;;;13.18;2.75;;;;;;;;;;5100205;27;20575;-78
2022/01/28 07:04:31;;;;;;;14.65;2.60;;;;;;;;;;5108296;28;20052;-78
2022/01/28 07:06:57;;;;;;;10.38;2.70;;;;;;;;;;5091410;28;20491;-78
2022/01/28 07:09:24;;;;;;;16.25;2.50;;;;;;;;;;5090401;28;20075;-78
2022/01/28 07:11:50;;;;;;;18.00;2.88;;;;;;;;;;5095998;28;20102;-79
2022/01/28 07:14:16;;;;;;;12.32;2.05;;;;;;;;;;5106927;28;20186;-79
2022/01/28 07:16:43;;;;;;;12.20;1.55;;;;;;;;;;5073714;28;20106;-78
2022/01/28 07:19:09;;;;;;;11.38;2.10;;;;;;;;;;5107745;28;20048;-79
2022/01/28 07:21:35;;;;;;;11.82;2.42;;;;;;;;;;5080420;28;20083;-78
2022/01/28 07:24:02;;;;;;;18.63;1.80;;;;;;;;;;5081021;28;20600;-78
2022/01/28 07:26:29;;;;;;;11.70;1.77;;;;;;;;;;5106057;28;20056;-78
2022/01/28 07:28:55;;;;;;;18.30;2.75;;;;;;;;;;5091901;28;20057;-76
2022/01/28 07:31:22;;;;;;;12.38;2.00;;;;;;;;;;5089121;28;20079;-76
2022/01/28 07:33:48;;;;;;;17.98;2.58;;;;;;;;;;5088744;28;20202;-76
2022/01/28 07:36:15;;;;;;;11.70;2.45;;;;;;;;;;5090681;28;20795;-75
2022/01/28 07:38:41;;;;;;;11.23;1.73;;;;;;;;;;5088393;28;20514;-76
2022/01/28 07:41:07;;;;;;;11.50;2.03;;;;;;;;;;5105542;27;20090;-76
2022/01/28 07:43:37;;;;;;;9.98;1.60;;;;;;;;;;5111745;27;20056;-76
2022/01/28 07:46:04;;;;;;;6.37;1.37;;;;;;;;;;5084474;28;21005;-76
2022/01/28 07:48:31;;;;;;;15.50;1.65;;;;;;;;;;5085077;28;20279;-76
2022/01/28 07:50:57;;;;;;;20.52;2.08;;;;;;;;;;5084490;28;20060;-76
2022/01/28 07:53:24;;;;;;;10.20;2.08;;;;;;;;;;5089824;28;20413;-76
2022/01/28 07:55:50;;;;;;;12.93;1.67;;;;;;;;;;5089127;28;20518;-76
2022/01/28 07:58:16;;;;;;;11.02;1.38;;;;;;;;;;5105349;28;20129;-76
2022/01/28 08:00:43;;;;;;;10.48;1.83;;;;;;;;;;5108693;28;20070;-76
2022/01/28 08:03:09;;;;;;;15.13;1.60;;;;;;;;;;5106707;28;20052;-76
2022/01/28 08:05:36;;;;;;;14.63;2.10;;;;;;;;;;5088290;28;20060;-76
2022/01/28 08:08:05;;;;;;;14.32;2.00;;;;;;;;;;5084931;28;20633;-76
2022/01/28 08:10:32;;;;;;;14.40;2.15;;;;;;;;;;5100604;27;20123;-76
2022/01/28 08:13:03;;;;;;;14.65;1.98;;;;;;;;;;5085323;28;20080;-76
2022/01/28 08:15:30;;;;;;;15.57;2.22;;;;;;;;;;5107218;27;20052;-76
2022/01/28 08:17:56;;;;;;;12.15;2.28;;;;;;;;;;5104341;27;20055;-76
2022/01/28 08:20:23;;;;;;;15.32;2.08;;;;;;;;;;5092194;27;20648;-76
2022/01/28 08:22:51;;;;;;;8.18;2.00;;;;;;;;;;5084287;28;20587;-76
2022/01/28 08:25:18;;;;;;;9.02;1.63;;;;;;;;;;5106342;28;20048;-76
2022/01/28 08:27:45;;;;;;;9.68;1.88;;;;;;;;;;5089723;28;20530;-76
2022/01/28 08:30:13;;;;;;;14.40;2.08;;;;;;;;;;5107302;28;20048;-76
2022/01/28 08:32:40;;;;;;;17.48;2.70;;;;;;;;;;5091251;28;20056;-76
2022/01/28 08:35:07;;;;;;;12.32;1.80;;;;;;;;;;5103258;27;20052;-75
2022/01/28 08:37:34;;;;;;;8.88;2.28;;;;;;;;;;5107121;27;20060;-76
2022/01/28 08:40:01;;;;;;;17.83;2.67;;;;;;;;;;5103786;27;20153;-76
2022/01/28 08:42:27;;;;;;;15.40;1.98;;;;;;;;;;5088076;28;20052;-76
2022/01/28 08:44:53;;;;;;;15.30;2.65;;;;;;;;;;5087720;28;20086;-76
2022/01/28 08:47:20;;;;;;;12.90;2.88;;;;;;;;;;5087393;27;20059;-76
2022/01/28 08:49:47;;;;;;;13.45;3.35;;;;;;;;;;5106499;27;20048;-75
2022/01/28 08:52:13;;;;;;;15.52;2.50;;;;;;;;;;5108126;27;20056;-76
2022/01/28 08:54:40;;;;;;;11.00;2.45;;;;;;;;;;5089957;28;20105;-75
2022/01/28 08:57:07;;;;;;;12.73;2.20;;;;;;;;;;5082840;28;20087;-75
2022/01/28 08:59:36;;;;;;;12.90;2.10;;;;;;;;;;5107241;27;20051;-75
2022/01/28 09:02:02;;;;;;;9.65;1.50;;;;;;;;;;5085798;28;20056;-76
2022/01/28 09:04:29;;;;;;;15.48;2.20;;;;;;;;;;5107753;27;20110;-76
2022/01/28 09:06:55;;;;;;;9.50;1.90;;;;;;;;;;5106202;27;20137;-75
2022/01/28 09:09:21;;;;;;;16.63;2.50;;;;;;;;;;5087860;27;20072;-76
2022/01/28 09:12:04;;;;;;;11.63;1.98;;;;;;;;;;5088204;28;20052;-75
2022/01/28 09:14:31;;;;;;;18.83;3.85;;;;;;;;;;5084399;28;20052;-76
2022/01/28 09:16:57;;;;;;;15.27;2.53;;;;;;;;;;5082879;28;20094;-76
2022/01/28 09:19:23;;;;;;;10.70;3.10;;;;;;;;;;5089139;28;20087;-76
2022/01/28 09:21:50;;;;;;;15.20;2.35;;;;;;;;;;5103726;27;20130;-76
2022/01/28 09:24:17;;;;;;;13.45;1.90;;;;;;;;;;5112270;27;20086;-76
2022/01/28 09:26:52;;;;;;;10.73;2.42;;;;;;;;;;5086132;28;20503;-76
2022/01/28 09:29:21;;;;;;;14.60;2.92;;;;;;;;;;5109097;27;20105;-76
2022/01/28 09:31:47;;;;;;;17.88;2.88;;;;;;;;;;5105606;27;20044;-76
2022/01/28 09:34:13;;;;;;;16.02;2.47;;;;;;;;;;5111978;27;20048;-78
2022/01/28 09:36:40;;;;;;;18.67;4.50;;;;;;;;;;5108013;27;20049;-76
2022/01/28 09:39:07;;;;;;;15.02;3.78;;;;;;;;;;5090042;28;20047;-76
2022/01/28 09:41:34;;;;;;;14.38;2.90;;;;;;;;;;5106820;27;20052;-76
2022/01/28 09:44:02;;;;;;;14.00;2.83;;;;;;;;;;5103829;27;20926;-76
2022/01/28 09:46:29;;;;;;;15.52;3.17;;;;;;;;;;5106398;27;20079;-76
2022/01/28 09:48:55;;;;;;;11.10;2.50;;;;;;;;;;5083744;27;20048;-77
2022/01/28 09:51:22;;;;;;;8.13;1.90;;;;;;;;;;5093554;28;20055;-77
2022/01/28 09:53:48;;;;;;;16.27;2.78;;;;;;;;;;5111931;28;20071;-76
2022/01/28 09:56:14;;;;;;;11.25;2.22;;;;;;;;;;5110663;28;20103;-77
2022/01/28 09:58:41;;;;;;;13.52;2.20;;;;;;;;;;5108007;27;20056;-76
2022/01/28 10:01:07;;;;;;;11.13;2.10;;;;;;;;;;5106841;27;20048;-77
2022/01/28 10:03:35;;;;;;;13.50;2.03;;;;;;;;;;5091602;28;20556;-77
2022/01/28 10:06:02;;;;;;;20.60;1.88;;;;;;;;;;5093767;28;20408;-76
2022/01/28 10:08:28;;;;;;;15.55;1.92;;;;;;;;;;5090485;28;20503;-77
2022/01/28 10:10:58;;;;;;;12.88;2.35;;;;;;;;;;5104259;27;20048;-77
2022/01/28 10:13:39;;;;;;;14.17;2.50;;;;;;;;;;5092119;28;20052;-75
2022/01/28 10:16:06;;;;;;;;;;;;;;;;;;5091049;28;20065;-77
2022/01/28 10:18:35;;;;;;;11.60;1.42;;;;;;;;;;5108091;28;45062;-77
2022/01/28 10:21:01;;;;;;;8.85;1.35;;;;;;;;;;5107909;27;20569;-76
2022/01/28 10:23:28;;;;;;;10.60;1.80;;;;;;;;;;5105268;27;20060;-76
2022/01/28 10:26:00;;;;;;;12.45;1.75;;;;;;;;;;5085088;28;20499;-77
2022/01/28 10:28:27;;;;;;;13.20;1.77;;;;;;;;;;5088149;27;20133;-77
2022/01/28 10:30:53;;;;;;;18.75;2.22;;;;;;;;;;5089976;28;20487;-76
2022/01/28 10:33:22;;;;;;;8.05;1.75;;;;;;;;;;5090684;28;20059;-77
2022/01/28 10:35:56;;;;;;;10.98;1.45;;;;;;;;;;5093195;28;20093;-76
2022/01/28 10:38:26;;;;;;;11.60;1.95;;;;;;;;;;5088973;28;20040;-76
2022/01/28 10:41:12;;;;;;;15.15;2.17;;;;;;;;;;5094713;28;20056;-76
2022/01/28 10:43:44;;;;;;;12.93;2.15;;;;;;;;;;5089206;28;20048;-77
2022/01/28 10:46:11;;;;;;;18.88;1.70;;;;;;;;;;5082736;27;20145;-77
2022/01/28 10:48:54;;;;;;;11.05;1.92;;;;;;;;;;5092656;28;20173;-77
2022/01/28 10:51:21;;;;;;;11.23;1.52;;;;;;;;;;5097571;27;20581;-77
2022/01/28 10:54:10;;;;;;;11.90;1.92;;;;;;;;;;5089795;28;20088;-76
2022/01/28 10:56:55;;;;;;;13.63;1.92;;;;;;;;;;5090157;28;20122;-77
2022/01/28 10:59:23;;;;;;;15.43;1.63;;;;;;;;;;5092160;28;20110;-76
2022/01/28 11:01:50;;;;;;;10.27;1.38;;;;;;;;;;5111269;28;20560;-77
2022/01/28 11:04:17;;;;;;;15.20;2.88;;;;;;;;;;5108577;27;20106;-77
2022/01/28 11:06:44;;;;;;;12.50;1.58;;;;;;;;;;5111610;27;20580;-76
2022/01/28 11:09:12;;;;;;;17.92;1.73;;;;;;;;;;5092319;28;20521;-77
2022/01/28 11:11:38;;;;;;;12.35;1.50;;;;;;;;;;5091896;28;20056;-76
2022/01/28 11:14:05;;;;;;;13.50;2.55;;;;;;;;;;5105100;28;20083;-77
2022/01/28 11:16:32;;;;;;;15.73;1.98;;;;;;;;;;5072419;28;20045;-77
2022/01/28 11:18:59;;;;;;;13.70;2.08;;;;;;;;;;5077630;28;20150;-76
2022/01/28 11:21:45;;;;;;;16.20;1.70;;;;;;;;;;5101612;27;20048;-76
2022/01/28 11:24:25;;;;;;;13.70;1.65;;;;;;;;;;5103981;27;20051;-76
2022/01/28 11:27:01;;;;;;;13.10;1.75;;;;;;;;;;5111278;27;20051;-77
2022/01/28 11:29:28;;;;;;;17.52;1.75;;;;;;;;;;5091926;28;20146;-75
2022/01/28 11:31:56;;;;;;;12.80;2.65;;;;;;;;;;5092623;28;20048;-77
2022/01/28 11:34:26;;;;;;;15.05;2.25;;;;;;;;;;5090145;28;20052;-76
2022/01/28 11:36:54;;;;;;;19.55;2.80;;;;;;;;;;5104661;27;20771;-78
2022/01/28 11:39:28;;;;;;;12.20;3.42;;;;;;;;;;5093001;28;20503;-77
2022/01/28 11:42:15;;;;;;;16.30;3.28;;;;;;;;;;5091815;28;20141;-77
2022/01/28 11:44:42;;;;;;;21.60;3.47;;;;;;;;;;5091468;28;20143;-77
2022/01/28 11:47:19;;;;;;;25.75;3.80;;;;;;;;;;5082094;28;20631;-77
2022/01/28 11:50:05;;;;;;;8.45;2.20;;;;;;;;;;5085225;28;20072;-76
2022/01/28 11:52:33;;;;;;;13.40;3.22;;;;;;;;;;5098227;27;20140;-77
2022/01/28 11:55:15;;;;;;;10.48;1.83;;;;;;;;;;5091055;28;20052;-77
2022/01/28 11:57:51;;;;;;;13.20;1.38;;;;;;;;;;5109892;28;20044;-77
2022/01/28 12:00:21;;;;;;;8.75;1.75;;;;;;;;;;5110021;27;20113;-77
2022/01/28 12:02:49;;;;;;;7.05;1.40;;;;;;;;;;5109839;27;20657;-77
2022/01/28 12:05:30;;;;;;;15.43;2.13;;;;;;;;;;5100555;27;20056;-78
2022/01/28 12:07:58;;;;;;;16.77;1.65;;;;;;;;;;5105044;27;20110;-76
2022/01/28 12:10:26;;;;;;;10.82;1.55;;;;;;;;;;5096503;28;21762;-78
2022/01/28 12:12:58;;;;;;;8.65;1.45;;;;;;;;;;5089414;28;20079;-78
2022/01/28 12:15:30;;;;;;;13.45;2.30;;;;;;;;;;5092694;27;20064;-78
2022/01/28 12:18:09;;;;;;;9.27;1.60;;;;;;;;;;5088226;28;20124;-77
2022/01/28 12:20:57;;;;;;;12.35;1.77;;;;;;;;;;5101383;28;20100;-78
2022/01/28 12:23:25;;;;;;;10.52;1.80;;;;;;;;;;5096091;27;20056;-77
2022/01/28 12:25:55;;;;;;;9.80;1.30;;;;;;;;;;5109995;27;20101;-78
2022/01/28 12:28:41;;;;;;;11.57;1.80;;;;;;;;;;5096500;28;20125;-77
2022/01/28 12:31:14;;;;;;;7.88;1.38;;;;;;;;;;5091881;27;20055;-78
2022/01/28 12:33:42;;;;;;;6.75;1.40;;;;;;;;;;5106250;28;20146;-77
2022/01/28 12:36:10;;;;;;;5.22;1.30;;;;;;;;;;5093013;28;20562;-78
2022/01/28 12:38:42;;;;;;;9.77;1.48;;;;;;;;;;5090316;28;20527;-78
2022/01/28 12:41:10;;;;;;;9.15;1.50;;;;;;;;;;5092697;28;20244;-77
2022/01/28 12:43:37;;;;;;;9.65;1.50;;;;;;;;;;5111410;28;20506;-78
2022/01/28 12:46:07;;;;;;;8.45;1.30;;;;;;;;;;5086184;28;20068;-77
2022/01/28 12:48:34;;;;;;;12.05;1.75;;;;;;;;;;5094035;28;20660;-78
2022/01/28 12:51:02;;;;;;;8.07;1.70;;;;;;;;;;5086186;28;20435;-78
2022/01/28 12:53:29;;;;;;;7.82;1.98;;;;;;;;;;5078357;28;20052;-78
2022/01/28 12:55:56;;;;;;;11.20;1.63;;;;;;;;;;5088443;28;20087;-78
2022/01/28 12:58:32;;;;;;;14.18;2.65;;;;;;;;;;5109701;27;20104;-78
2022/01/28 13:01:09;;;;;;;9.30;1.33;;;;;;;;;;5088223;27;20942;-78
2022/01/28 13:03:45;;;;;;;10.50;1.20;;;;;;;;;;5107164;28;20080;-77
2022/01/28 13:06:23;;;;;;;7.13;1.20;;;;;;;;;;5091178;28;20056;-78
2022/01/28 13:08:50;;;;;;;9.73;1.50;;;;;;;;;;5090216;27;20052;-77
2022/01/28 13:11:16;;;;;;;8.20;1.98;;;;;;;;;;5107832;27;20055;-77
2022/01/28 13:14:10;;;;;;;8.23;1.40;;;;;;;;;;5107198;27;20063;-77
2022/01/28 13:16:38;;;;;;;14.20;1.50;;;;;;;;;;5069266;28;20049;-77
2022/01/28 13:19:05;;;;;;;9.95;1.55;;;;;;;;;;5080295;28;20063;-78
2022/01/28 13:21:32;;;;;;;6.28;1.55;;;;;;;;;;5112288;27;20048;-78
2022/01/28 13:24:03;;;;;;;8.27;1.30;;;;;;;;;;5090213;27;20059;-77
2022/01/28 13:26:29;;;;;;;8.80;1.20;;;;;;;;;;5092624;28;20059;-77
2022/01/28 13:29:07;;;;;;;10.00;1.00;;;;;;;;;;5105561;28;20159;-78
2022/01/28 13:31:33;;;;;;;8.43;1.50;;;;;;;;;;5094188;28;20056;-77
2022/01/28 13:34:01;;;;;;;8.45;1.63;;;;;;;;;;5113620;28;20098;-77
2022/01/28 13:36:42;;;;;;;9.82;1.30;;;;;;;;;;5111733;27;20498;-78
2022/01/28 13:39:13;;;;;;;8.38;1.40;;;;;;;;;;5088200;28;20052;-77
2022/01/28 13:41:40;;;;;;;11.23;1.30;;;;;;;;;;5113764;28;20044;-78
2022/01/28 13:44:18;;;;;;;10.70;1.55;;;;;;;;;;5094131;28;20056;-77
2022/01/28 13:46:53;;;;;;;9.90;1.63;;;;;;;;;;5091792;28;20038;-78
2022/01/28 13:49:21;;;;;;;8.60;2.05;;;;;;;;;;5111287;28;20056;-77
2022/01/28 13:51:47;;;;;;;11.75;1.60;;;;;;;;;;5087942;28;20063;-77
2022/01/28 13:54:19;;;;;;;10.27;2.05;;;;;;;;;;5110089;28;20106;-77
2022/01/28 13:56:48;;;;;;;10.80;1.85;;;;;;;;;;5089125;28;20052;-77
2022/01/28 13:59:15;;;;;;;11.50;2.00;;;;;;;;;;5112513;27;20056;-78
2022/01/28 14:01:46;;;;;;;10.30;2.28;;;;;;;;;;5093634;28;20052;-77
2022/01/28 14:04:20;;;;;;;11.98;2.63;;;;;;;;;;5083672;28;20568;-77
2022/01/28 14:06:47;;;;;;;9.77;2.33;;;;;;;;;;5094382;28;20064;-77
2022/01/28 14:09:16;;;;;;;13.93;2.33;;;;;;;;;;5107904;27;20055;-77
2022/01/28 14:11:45;;;;;;;9.02;2.25;;;;;;;;;;5095834;28;20051;-78
2022/01/28 14:14:42;;;;;;;16.13;2.55;;;;;;;;;;5096182;28;20149;-78
2022/01/28 14:17:11;;;;;;;12.52;2.72;;;;;;;;;;5095395;28;20052;-78
2022/01/28 14:19:39;;;;;;;11.98;2.78;;;;;;;;;;5088942;28;20141;-77
2022/01/28 14:22:08;;;;;;;22.98;3.85;;;;;;;;;;5074430;28;20037;-77
2022/01/28 14:24:49;;;;;;;18.80;6.07;;;;;;;;;;5096333;28;20056;-78
2022/01/28 14:29:53;;;;;;;26.02;8.57;;;;;;;;;;5111522;27;20056;-78
2022/01/28 14:32:21;;;;;;;18.88;4.47;;;;;;;;;;5112103;27;20548;-78
2022/01/28 14:34:49;;;;;;;16.70;4.55;;;;;;;;;;5111464;27;20680;-78
2022/01/28 14:37:16;;;;;;;9.93;3.38;;;;;;;;;;5099945;28;20584;-77
2022/01/28 14:39:43;;;;;;;13.93;3.65;;;;;;;;;;5106199;27;20115;-77
2022/01/28 14:42:10;;;;;;;15.98;3.60;;;;;;;;;;5091847;28;20523;-77
2022/01/28 14:44:41;;;;;;;9.30;3.60;;;;;;;;;;5108553;28;20105;-77
2022/01/28 14:47:08;;;;;;;23.15;5.32;;;;;;;;;;5110129;27;20060;-80
2022/01/28 14:49:35;;;;;;;17.85;7.38;;;;;;;;;;5093140;28;20101;-78
2022/01/28 14:52:06;;;;;;;19.02;8.18;;;;;;;;;;5092771;28;20062;-77
2022/01/28 14:54:33;;;;;;;16.52;6.05;;;;;;;;;;5098167;28;20059;-78
2022/01/28 14:57:01;;;;;;;15.63;5.22;;;;;;;;;;5082341;28;20037;-78
2022/01/28 14:59:27;;;;;;;15.07;3.78;;;;;;;;;;5111222;28;20063;-78
2022/01/28 15:01:54;;;;;;;10.77;3.45;;;;;;;;;;5111553;27;20101;-78
2022/01/28 15:04:21;;;;;;;12.85;3.33;;;;;;;;;;5080982;28;20078;-78
2022/01/28 15:06:47;;;;;;;19.73;7.25;;;;;;;;;;5104727;28;20635;-78
2022/01/28 15:09:14;;;;;;;12.27;4.03;;;;;;;;;;5111119;28;20105;-77
2022/01/28 15:11:46;;;;;;;23.42;7.65;;;;;;;;;;5085339;28;20105;-78
2022/01/28 15:14:20;;;;;;;15.85;6.57;;;;;;;;;;5094439;28;20048;-78
2022/01/28 15:16:46;;;;;;;16.40;3.97;;;;;;;;;;5111231;27;20052;-78
2022/01/28 15:19:13;;;;;;;18.08;3.80;;;;;;;;;;5070063;28;1159708;-78
2022/01/28 15:21:42;;;;;;;8.18;3.42;;;;;;;;;;5094271;28;20052;-77
2022/01/28 15:24:10;;;;;;;13.70;2.72;;;;;;;;;;5110947;28;20125;-78
2022/01/28 15:26:36;;;;;;;11.98;2.58;;;;;;;;;;5092726;28;20048;-78
2022/01/28 15:29:05;;;;;;;13.48;3.85;;;;;;;;;;5085332;27;20048;-78
2022/01/28 15:34:34;;;;;;;11.63;2.65;;;;;;;;;;5110969;27;20110;-78
2022/01/28 15:37:01;;;;;;;13.18;2.80;;;;;;;;;;5112285;28;20056;-77
2022/01/28 15:39:35;;;;;;;19.02;3.47;;;;;;;;;;5090014;28;20433;-78
2022/01/28 15:42:06;;;;;;;13.68;2.85;;;;;;;;;;5095217;28;20055;-77
2022/01/28 15:44:32;;;;;;;;;;;;;;;;;;5108740;28;20052;-77
2022/01/28 15:46:59;;;;;;;11.55;3.10;;;;;;;;;;5094898;28;46087;-77
2022/01/28 15:49:26;;;;;;;9.70;2.25;;;;;;;;;;5093642;28;20125;-77
2022/01/28 15:51:52;;;;;;;10.23;2.10;;;;;;;;;;5094943;27;20056;-77
2022/01/28 15:54:19;;;;;;;8.90;2.40;;;;;;;;;;5092605;28;20048;-77
2022/01/28 15:56:45;;;;;;;10.80;1.83;;;;;;;;;;5104706;28;20048;-77
2022/01/28 15:59:11;;;;;;;12.07;2.53;;;;;;;;;;5102811;27;20052;-78
2022/01/28 16:01:38;;;;;;;10.27;2.50;;;;;;;;;;5086782;28;20052;-77
2022/01/28 16:04:05;;;;;;;13.85;2.55;;;;;;;;;;5085647;28;20071;-78
2022/01/28 16:06:32;;;;;;;12.75;2.58;;;;;;;;;;5089469;28;20055;-77
2022/01/28 16:09:01;;;;;;;12.38;2.50;;;;;;;;;;5109200;27;20576;-77
2022/01/28 16:11:30;;;;;;;11.73;2.47;;;;;;;;;;5111399;27;20052;-77
2022/01/28 16:14:02;;;;;;;11.25;2.60;;;;;;;;;;5093533;28;20052;-77